createdAt,value
2018-04-27T08:13:15.013Z,15.40
2018-04-27T08:15:42.503Z,15.30
2018-04-27T08:18:10.046Z,15.50
2018-04-27T08:20:38.390Z,15.60
2018-04-27T08:23:06.757Z,15.80
2018-04-27T08:25:35.078Z,15.90
2018-04-27T08:28:02.597Z,15.90
2018-04-27T08:30:30.901Z,16.00
2018-04-27T08:32:58.436Z,16.00
2018-04-27T08:35:25.954Z,16.10
2018-04-27T08:37:53.453Z,16.20
2018-04-27T08:40:21.734Z,16.20
2018-04-27T08:42:49.340Z,16.30
2018-04-27T08:45:17.162Z,16.40
2018-04-27T08:47:44.686Z,16.40
2018-04-27T08:50:12.260Z,16.40
2018-04-27T08:52:40.523Z,16.30
2018-04-27T08:55:08.037Z,16.30
2018-04-27T08:57:35.538Z,16.30
2018-04-27T09:00:03.082Z,16.30
2018-04-27T09:02:30.610Z,16.30
2018-04-27T09:04:58.110Z,16.30
2018-04-27T09:07:25.608Z,16.30
2018-04-27T09:09:53.122Z,16.30
2018-04-27T09:12:20.645Z,16.30
2018-04-27T09:14:48.163Z,16.30
2018-04-27T09:17:15.713Z,16.20
2018-04-27T09:19:44.017Z,16.30
2018-04-27T09:22:12.016Z,16.30
2018-04-27T09:24:40.447Z,16.40
2018-04-27T09:27:07.938Z,16.40
2018-04-27T09:29:35.423Z,16.50
2018-04-27T09:32:03.062Z,16.50
2018-04-27T09:34:30.807Z,16.50
2018-04-27T09:36:58.323Z,16.70
2018-04-27T09:39:26.604Z,17.00
2018-04-27T09:41:54.959Z,16.90
2018-04-27T09:44:22.525Z,17.00
2018-04-27T09:46:50.032Z,17.10
2018-04-27T09:49:18.345Z,17.20
2018-04-27T09:51:46.649Z,17.30
2018-04-27T09:54:14.902Z,17.50
2018-04-27T09:56:42.401Z,17.50
2018-04-27T09:59:09.897Z,17.70
2018-04-27T10:01:37.409Z,17.90
2018-04-27T10:04:04.978Z,17.90
2018-04-27T10:06:32.461Z,18.00
2018-04-27T10:08:59.972Z,18.00
2018-04-27T10:11:27.468Z,18.10
2018-04-27T10:13:55.047Z,18.20
2018-04-27T10:16:23.748Z,18.30
2018-04-27T10:18:51.265Z,18.40
2018-04-27T10:21:19.527Z,18.80
2018-04-27T10:23:47.043Z,18.80
2018-04-27T10:26:23.177Z,19.00
2018-04-27T10:28:50.716Z,19.00
2018-04-27T10:31:19.047Z,19.10
2018-04-27T10:33:47.327Z,19.30
2018-04-27T10:36:15.587Z,19.40
2018-04-27T10:38:43.850Z,19.70
2018-04-27T10:41:11.335Z,19.60
2018-04-27T10:43:39.586Z,19.90
2018-04-27T10:46:07.084Z,19.90
2018-04-27T10:48:34.644Z,19.80
2018-04-27T10:51:02.170Z,19.70
2018-04-27T10:53:30.475Z,19.80
2018-04-27T10:55:58.010Z,19.80
2018-04-27T10:58:26.278Z,20.10
2018-04-27T11:00:54.630Z,20.20
2018-04-27T11:03:22.193Z,20.10
2018-04-27T11:05:49.910Z,20.10
2018-04-27T11:08:17.414Z,20.20
2018-04-27T11:10:44.955Z,20.40
2018-04-27T11:13:13.044Z,20.70
2018-04-27T11:15:40.546Z,20.70
2018-04-27T11:18:08.056Z,20.70
2018-04-27T11:20:35.554Z,20.60
2018-04-27T11:23:03.106Z,20.50
2018-04-27T11:25:35.635Z,20.50
2018-04-27T11:28:04.112Z,20.50
2018-04-27T11:30:31.759Z,20.40
2018-04-27T11:32:59.282Z,20.30
2018-04-27T11:35:26.779Z,20.40
2018-04-27T11:37:54.376Z,20.80
2018-04-27T11:40:21.916Z,21.00
2018-04-27T11:42:49.431Z,21.00
2018-04-27T11:45:17.089Z,21.00
2018-04-27T11:47:45.382Z,20.80
2018-04-27T11:50:12.862Z,20.80
2018-04-27T11:52:40.459Z,20.90
2018-04-27T11:55:07.995Z,20.80
2018-04-27T11:57:35.479Z,20.80
2018-04-27T12:00:02.979Z,20.90
2018-04-27T12:02:30.729Z,20.80
2018-04-27T12:04:58.973Z,20.80
2018-04-27T12:07:26.518Z,20.90
2018-04-27T12:09:54.040Z,21.00
2018-04-27T12:12:22.347Z,20.90
2018-04-27T12:14:50.855Z,20.60
2018-04-27T12:17:18.465Z,20.60
2018-04-27T12:19:45.990Z,20.60
2018-04-27T12:22:13.475Z,20.60
2018-04-27T12:24:41.001Z,20.70
2018-04-27T12:27:08.501Z,20.80
2018-04-27T12:29:36.143Z,20.80
2018-04-27T12:32:03.736Z,20.70
2018-04-27T12:34:33.551Z,21.10
2018-04-27T12:37:03.595Z,21.30
2018-04-27T12:39:31.157Z,21.30
2018-04-27T12:41:58.670Z,21.30
2018-04-27T12:44:26.968Z,21.60
2018-04-27T12:46:54.501Z,21.60
2018-04-27T12:49:21.984Z,21.70
2018-04-27T12:51:50.306Z,21.70
2018-04-27T12:54:17.835Z,21.70
2018-04-27T12:56:45.333Z,21.80
2018-04-27T12:59:12.831Z,22.10
2018-04-27T13:01:40.336Z,22.30
2018-04-27T13:04:07.848Z,22.40
2018-04-27T13:06:35.351Z,22.60
2018-04-27T13:09:03.631Z,22.90
2018-04-27T13:11:31.141Z,22.90
2018-04-27T13:13:58.825Z,23.20
2018-04-27T13:16:26.374Z,23.40
2018-04-27T13:18:53.908Z,23.20
2018-04-27T13:21:21.398Z,23.20
2018-04-27T13:23:48.908Z,23.50
2018-04-27T13:26:17.209Z,23.20
2018-04-27T13:28:44.716Z,23.20
2018-04-27T13:31:12.540Z,22.90
2018-04-27T13:33:40.049Z,22.80
2018-04-27T13:36:07.540Z,22.50
2018-04-27T13:38:35.863Z,22.10
2018-04-27T13:41:03.392Z,22.10
2018-04-27T13:43:31.088Z,22.10
2018-04-27T13:45:58.600Z,22.10
2018-04-27T13:48:26.122Z,21.90
2018-04-27T13:50:53.614Z,21.80
2018-04-27T13:53:21.126Z,21.70
2018-04-27T13:55:48.652Z,21.40
2018-04-27T13:58:17.488Z,21.50
2018-04-27T14:00:45.800Z,21.60
2018-04-27T14:03:13.325Z,21.60
2018-04-27T14:05:41.714Z,21.50
2018-04-27T14:08:09.160Z,21.50
2018-04-27T14:10:37.429Z,21.00
2018-04-27T14:13:05.752Z,20.90
2018-04-27T14:15:33.326Z,20.90
2018-04-27T14:18:01.631Z,20.80
2018-04-27T14:20:29.162Z,20.90
2018-04-27T14:22:56.648Z,20.90
2018-04-27T14:25:24.154Z,20.90
2018-04-27T14:27:52.408Z,20.70
2018-04-27T14:30:20.951Z,20.60
2018-04-27T14:32:48.443Z,20.60
2018-04-27T14:35:15.992Z,20.70
2018-04-27T14:37:43.527Z,20.90
2018-04-27T14:40:11.037Z,21.00
2018-04-27T14:42:38.520Z,21.00
2018-04-27T14:45:06.071Z,20.90
2018-04-27T14:47:33.561Z,20.70
2018-04-27T14:50:01.052Z,20.60
2018-04-27T14:52:28.633Z,20.50
2018-04-27T14:54:56.878Z,20.50
2018-04-27T14:57:24.400Z,20.50
2018-04-27T14:59:53.113Z,20.60
2018-04-27T15:02:21.400Z,20.50
2018-04-27T15:04:48.896Z,20.50
2018-04-27T15:07:16.706Z,20.30
2018-04-27T15:09:44.966Z,20.50
2018-04-27T15:12:12.471Z,20.40
2018-04-27T15:14:40.004Z,20.60
2018-04-27T15:17:07.522Z,20.80
2018-04-27T15:19:35.029Z,21.10
2018-04-27T15:22:03.354Z,21.50
2018-04-27T15:24:30.966Z,21.40
2018-04-27T15:26:58.467Z,21.50
2018-04-27T15:29:25.959Z,21.40
2018-04-27T15:31:54.233Z,21.20
2018-04-27T15:34:22.523Z,21.10
2018-04-27T15:36:50.015Z,21.10
2018-04-27T15:39:18.345Z,21.00
2018-04-27T15:41:46.594Z,21.00
2018-04-27T15:44:14.131Z,21.00
2018-04-27T15:46:41.631Z,21.00
2018-04-27T15:49:09.959Z,20.80
2018-04-27T15:51:38.313Z,20.80
2018-04-27T15:54:05.837Z,20.80
2018-04-27T15:56:34.127Z,20.50
2018-04-27T15:59:01.811Z,20.50
2018-04-27T16:01:29.351Z,20.40
2018-04-27T16:03:56.907Z,20.10
2018-04-27T16:06:24.407Z,20.00
2018-04-27T16:08:52.675Z,19.80
2018-04-27T16:11:20.184Z,19.80
2018-04-27T16:13:59.751Z,20.00
2018-04-27T16:16:29.054Z,20.00
2018-04-27T16:18:58.230Z,20.10
2018-04-27T16:21:25.773Z,20.20
2018-04-27T16:23:54.069Z,20.40
2018-04-27T16:26:23.157Z,20.50
2018-04-27T16:28:51.422Z,20.60
2018-04-27T16:31:19.688Z,20.60
2018-04-27T16:33:47.941Z,20.60
2018-04-27T16:36:15.435Z,20.60
2018-04-27T16:38:43.720Z,20.70
2018-04-27T16:41:11.224Z,20.60
2018-04-27T16:43:38.715Z,20.70
2018-04-27T16:46:07.029Z,20.80
2018-04-27T16:48:34.601Z,20.80
2018-04-27T16:51:02.165Z,20.70
2018-04-27T16:53:29.660Z,20.70
2018-04-27T16:55:57.183Z,20.80
2018-04-27T16:58:24.705Z,20.80
2018-04-27T17:00:52.197Z,20.80
2018-04-27T17:03:19.707Z,20.90
2018-04-27T17:05:47.217Z,20.80
2018-04-27T17:08:14.842Z,20.80
2018-04-27T17:10:42.398Z,20.70
2018-04-27T17:13:09.934Z,20.80
2018-04-27T17:15:39.104Z,20.80
2018-04-27T17:18:06.649Z,20.80
2018-04-27T17:20:35.282Z,20.90
2018-04-27T17:23:03.476Z,20.80
2018-04-27T17:25:31.014Z,20.80
2018-04-27T17:27:58.510Z,20.80
2018-04-27T17:30:28.690Z,20.70
2018-04-27T17:32:56.222Z,20.60
2018-04-27T17:35:24.721Z,20.60
2018-04-27T17:37:52.303Z,20.60
2018-04-27T17:40:19.900Z,20.60
2018-04-27T17:42:47.404Z,20.60
2018-04-27T17:45:14.924Z,20.60
2018-04-27T17:47:42.427Z,20.60
2018-04-27T17:50:09.957Z,20.60
2018-04-27T17:52:38.224Z,20.70
2018-04-27T17:55:07.387Z,20.70
2018-04-27T17:57:34.969Z,20.70
2018-04-27T18:00:03.258Z,20.60
2018-04-27T18:02:32.327Z,20.50
2018-04-27T18:04:59.966Z,20.50
2018-04-27T18:07:27.496Z,20.50
2018-04-27T18:09:55.009Z,20.40
2018-04-27T18:12:22.517Z,20.30
2018-04-27T18:14:51.091Z,20.30
2018-04-27T18:17:18.598Z,20.20
2018-04-27T18:19:46.113Z,20.20
2018-04-27T18:22:13.621Z,20.10
2018-04-27T18:24:41.124Z,20.00
2018-04-27T18:27:08.639Z,19.80
2018-04-27T18:29:36.171Z,19.60
2018-04-27T18:32:03.727Z,19.40
2018-04-27T18:34:31.219Z,19.40
2018-04-27T18:36:59.535Z,19.40
2018-04-27T18:39:27.138Z,19.40
2018-04-27T18:41:54.615Z,19.40
2018-04-27T18:44:22.870Z,19.50
2018-04-27T18:46:50.392Z,19.50
2018-04-27T18:49:18.651Z,19.50
2018-04-27T18:51:46.171Z,19.40
2018-04-27T18:54:13.702Z,19.40
2018-04-27T18:56:41.219Z,19.30
2018-04-27T18:59:08.716Z,19.30
2018-04-27T19:01:37.088Z,19.30
2018-04-27T19:04:04.599Z,19.30
2018-04-27T19:06:32.896Z,19.20
2018-04-27T19:09:00.485Z,19.20
2018-04-27T19:11:28.015Z,19.10
2018-04-27T19:13:55.514Z,19.10
2018-04-27T19:16:23.805Z,19.00
2018-04-27T19:18:57.677Z,18.90
2018-04-27T19:21:25.214Z,18.90
2018-04-27T19:23:53.519Z,18.80
2018-04-27T19:26:21.084Z,18.80
2018-04-27T19:28:48.688Z,18.80
2018-04-27T19:31:16.217Z,18.70
2018-04-27T19:33:43.739Z,18.70
2018-04-27T19:36:11.249Z,18.70
2018-04-27T19:38:39.552Z,18.60
2018-04-27T19:41:07.075Z,18.60
2018-04-27T19:43:35.346Z,18.50
2018-04-27T19:46:03.665Z,18.30
2018-04-27T19:48:31.218Z,18.40
2018-04-27T19:50:58.727Z,18.40
2018-04-27T19:53:26.245Z,18.30
2018-04-27T19:55:53.732Z,18.20
2018-04-27T19:58:21.263Z,18.10
2018-04-27T20:00:48.766Z,17.90
2018-04-27T20:03:17.646Z,17.70
2018-04-27T20:05:47.985Z,17.50
2018-04-27T20:08:16.260Z,17.30
2018-04-27T20:10:44.722Z,17.20
2018-04-27T20:13:15.835Z,17.10
2018-04-27T20:15:44.128Z,17.10
2018-04-27T20:18:19.375Z,17.00
2018-04-27T20:20:47.713Z,16.90
2018-04-27T20:23:15.222Z,16.80
2018-04-27T20:25:43.500Z,16.60
2018-04-27T20:28:12.662Z,16.50
2018-04-27T20:30:40.214Z,16.40
2018-04-27T20:33:14.359Z,16.30
2018-04-27T20:35:41.924Z,16.20
2018-04-27T20:38:16.004Z,16.00
2018-04-27T20:40:43.544Z,16.00
2018-04-27T20:43:11.889Z,15.90
2018-04-27T20:45:40.162Z,15.80
2018-04-27T20:48:17.075Z,15.70
2018-04-27T20:50:47.246Z,15.70
2018-04-27T20:53:14.941Z,15.60
2018-04-27T20:55:42.427Z,15.60
2018-04-27T20:58:09.968Z,15.50
2018-04-27T21:00:38.301Z,15.40
2018-04-27T21:03:06.572Z,15.40
2018-04-27T21:05:34.835Z,15.30
2018-04-27T21:08:02.400Z,15.30
2018-04-27T21:10:33.778Z,15.20
2018-04-27T21:13:05.910Z,15.20
2018-04-27T21:15:33.430Z,15.10
2018-04-27T21:18:07.387Z,15.10
2018-04-27T21:20:39.259Z,15.10
2018-04-27T21:23:09.397Z,15.00
2018-04-27T21:25:39.942Z,15.00
2018-04-27T21:28:15.533Z,14.90
2018-04-27T21:30:44.373Z,14.80
2018-04-27T21:33:12.718Z,14.80
2018-04-27T21:35:57.669Z,14.80
2018-04-27T21:41:31.933Z,14.70
2018-04-27T21:44:20.858Z,14.60
2018-04-27T21:46:51.178Z,14.60
2018-04-27T21:49:19.496Z,14.60
2018-04-27T21:51:49.369Z,14.60
2018-04-27T21:54:18.381Z,14.60
2018-04-27T21:56:54.607Z,14.60
2018-04-27T21:59:24.705Z,14.50
2018-04-27T22:01:52.193Z,14.50
2018-04-27T22:04:21.219Z,14.50
2018-04-27T22:06:48.750Z,14.50
2018-04-27T22:09:18.115Z,14.50
2018-04-27T22:11:47.161Z,14.50
2018-04-27T22:14:19.243Z,14.50
2018-04-27T22:19:49.957Z,14.50
2018-04-27T22:22:19.051Z,14.50
2018-04-27T22:24:51.127Z,14.50
2018-04-27T22:27:19.439Z,14.60
2018-04-27T22:29:47.053Z,14.60
2018-04-27T22:32:23.991Z,14.80
2018-04-27T22:34:54.415Z,14.70
2018-04-27T22:37:22.719Z,14.90
2018-04-27T22:39:50.523Z,14.90
2018-04-27T22:42:20.556Z,15.00
2018-04-27T22:44:51.173Z,15.10
2018-04-27T22:47:28.143Z,15.10
2018-04-27T22:49:56.040Z,15.20
2018-04-27T22:52:23.535Z,15.10
2018-04-27T22:54:52.836Z,15.10
2018-04-27T22:57:25.662Z,15.10
2018-04-27T22:59:55.081Z,15.10
2018-04-27T23:02:22.571Z,15.10
2018-04-27T23:04:51.998Z,15.10
2018-04-27T23:07:22.410Z,15.10
2018-04-27T23:09:51.362Z,15.10
2018-04-27T23:12:19.856Z,15.10
2018-04-27T23:14:49.190Z,15.10
2018-04-27T23:17:16.724Z,15.10
2018-04-27T23:22:42.745Z,15.10
2018-04-27T23:25:16.023Z,15.10
2018-04-27T23:27:43.572Z,15.10
2018-04-27T23:30:11.096Z,15.20
2018-04-27T23:32:40.200Z,15.10
2018-04-27T23:35:07.749Z,15.10
2018-04-27T23:37:36.000Z,15.10
2018-04-27T23:40:03.514Z,15.10
2018-04-27T23:42:31.485Z,15.10
2018-04-27T23:44:59.012Z,15.00
2018-04-27T23:47:27.625Z,15.00
2018-04-27T23:49:55.148Z,15.00
2018-04-27T23:52:23.438Z,14.90
2018-04-27T23:54:52.085Z,14.80
2018-04-27T23:57:19.662Z,14.80
2018-04-27T23:59:50.831Z,14.80
